createdAt,value
2023-01-17T00:00:32.970Z,92.65
2023-01-17T00:04:37.697Z,92.34
2023-01-17T00:08:22.350Z,92.43
2023-01-17T00:11:49.409Z,92.69
2023-01-17T00:15:19.698Z,92.49
2023-01-17T00:19:07.735Z,92.23
2023-01-17T00:22:49.000Z,92.08
2023-01-17T00:26:19.380Z,92.36
2023-01-17T00:29:46.344Z,92.21
2023-01-17T00:33:12.460Z,92.10
2023-01-17T00:36:38.192Z,92.30
2023-01-17T00:40:04.825Z,92.18
2023-01-17T00:43:50.213Z,92.36
2023-01-17T00:47:35.042Z,92.43
2023-01-17T00:51:21.504Z,92.61
2023-01-17T00:55:06.281Z,92.59
2023-01-17T00:58:51.257Z,92.87
2023-01-17T01:02:36.465Z,93.17
2023-01-17T01:06:25.355Z,93.45
2023-01-17T01:10:09.974Z,93.57
2023-01-17T01:13:55.381Z,93.55
2023-01-17T01:17:39.767Z,93.24
2023-01-17T01:21:25.423Z,93.15
2023-01-17T01:25:10.201Z,93.18
2023-01-17T01:28:54.867Z,93.19
2023-01-17T01:32:39.537Z,93.30
2023-01-17T01:36:10.525Z,93.25
2023-01-17T01:39:37.464Z,93.30
2023-01-17T01:43:06.150Z,93.10
2023-01-17T01:46:38.042Z,92.92
2023-01-17T01:50:08.490Z,93.07
2023-01-17T01:53:39.743Z,93.21
2023-01-17T01:57:09.586Z,92.98
2023-01-17T02:00:40.953Z,93.07
2023-01-17T02:04:10.191Z,93.29
2023-01-17T02:07:43.045Z,93.04
2023-01-17T02:11:09.926Z,93.01
2023-01-17T02:14:36.875Z,93.28
2023-01-17T02:18:17.730Z,93.00
2023-01-17T02:21:54.353Z,93.56
2023-01-17T02:25:46.218Z,93.74
2023-01-17T02:29:40.897Z,94.08
2023-01-17T02:33:22.414Z,94.25
2023-01-17T02:36:55.868Z,94.42
2023-01-17T02:40:28.155Z,94.60
2023-01-17T02:43:55.191Z,94.48
2023-01-17T02:47:27.912Z,94.60
2023-01-17T02:51:21.862Z,94.52
2023-01-17T02:55:08.905Z,94.56
2023-01-17T02:58:52.436Z,94.37
2023-01-17T03:02:29.340Z,94.03
2023-01-17T03:06:00.744Z,93.90
2023-01-17T03:09:30.100Z,94.21
2023-01-17T03:13:00.945Z,94.32
2023-01-17T03:16:30.282Z,94.24
2023-01-17T03:19:57.180Z,94.07
2023-01-17T03:23:24.108Z,94.42
2023-01-17T03:26:51.275Z,94.89
2023-01-17T03:30:20.441Z,94.99
2023-01-17T03:33:48.081Z,94.79
2023-01-17T03:37:15.274Z,94.55
2023-01-17T03:40:42.631Z,94.93
2023-01-17T03:44:10.006Z,94.70
2023-01-17T03:47:38.591Z,94.90
2023-01-17T03:51:05.839Z,94.83
2023-01-17T03:54:32.743Z,94.97
2023-01-17T03:57:59.664Z,95.03
2023-01-17T04:01:26.952Z,95.10
2023-01-17T04:04:54.056Z,95.24
2023-01-17T04:08:21.045Z,95.16
2023-01-17T04:11:51.002Z,94.91
2023-01-17T04:15:18.728Z,94.97
2023-01-17T04:18:45.900Z,94.95
2023-01-17T04:22:13.361Z,94.87
2023-01-17T04:25:40.380Z,94.64
2023-01-17T04:29:07.647Z,94.54
2023-01-17T04:32:34.605Z,94.37
2023-01-17T04:36:01.793Z,94.43
2023-01-17T04:39:28.808Z,94.37
2023-01-17T04:42:55.739Z,94.53
2023-01-17T04:46:22.731Z,94.57
2023-01-17T04:49:49.877Z,94.50
2023-01-17T04:53:16.774Z,94.58
2023-01-17T04:56:44.249Z,94.32
2023-01-17T05:00:13.573Z,94.19
2023-01-17T05:03:40.746Z,94.18
2023-01-17T05:07:08.169Z,93.89
2023-01-17T05:10:35.489Z,93.97
2023-01-17T05:14:02.350Z,93.94
2023-01-17T05:17:29.423Z,93.96
2023-01-17T05:21:01.693Z,93.82
2023-01-17T05:24:28.672Z,94.07
2023-01-17T05:27:56.520Z,93.54
2023-01-17T05:31:23.525Z,93.58
2023-01-17T05:34:51.109Z,93.47
2023-01-17T05:38:18.379Z,93.46
2023-01-17T05:41:45.322Z,93.23
2023-01-17T05:45:16.808Z,93.04
2023-01-17T05:48:43.758Z,92.85
2023-01-17T05:52:11.043Z,93.01
2023-01-17T05:55:38.755Z,92.77
2023-01-17T05:59:05.732Z,92.68
2023-01-17T06:02:32.640Z,92.54
2023-01-17T06:05:59.627Z,92.30
2023-01-17T06:09:26.739Z,92.15
2023-01-17T06:13:01.151Z,92.14
2023-01-17T06:16:28.140Z,91.95
2023-01-17T06:19:55.052Z,91.89
2023-01-17T06:23:22.324Z,91.72
2023-01-17T06:26:49.398Z,91.56
2023-01-17T06:30:17.703Z,91.61
2023-01-17T06:33:44.668Z,91.13
2023-01-17T06:37:11.755Z,91.19
2023-01-17T06:40:38.941Z,90.88
2023-01-17T06:44:07.565Z,90.65
2023-01-17T06:47:38.605Z,90.68
2023-01-17T06:51:05.621Z,90.22
2023-01-17T06:54:32.689Z,90.24
2023-01-17T06:58:00.697Z,89.84
2023-01-17T07:01:27.845Z,89.75
2023-01-17T07:04:54.983Z,89.66
2023-01-17T07:08:23.121Z,89.45
2023-01-17T07:11:51.833Z,89.10
2023-01-17T07:15:19.151Z,89.33
2023-01-17T07:18:46.142Z,89.21
2023-01-17T07:22:13.416Z,89.14
2023-01-17T07:25:40.428Z,89.16
2023-01-17T07:29:08.066Z,88.97
2023-01-17T07:32:35.365Z,88.81
2023-01-17T07:36:04.287Z,88.91
2023-01-17T07:39:31.173Z,88.83
2023-01-17T07:43:03.165Z,88.79
2023-01-17T07:46:31.790Z,88.74
2023-01-17T07:49:58.803Z,88.74
2023-01-17T07:53:27.553Z,88.68
2023-01-17T07:56:54.574Z,88.63
2023-01-17T08:00:26.284Z,88.34
2023-01-17T08:03:54.891Z,88.22
2023-01-17T08:07:21.916Z,87.91
2023-01-17T08:10:49.545Z,87.52
2023-01-17T08:14:16.498Z,87.35
2023-01-17T08:17:48.897Z,87.30
2023-01-17T08:21:17.936Z,87.18
2023-01-17T08:24:44.834Z,87.25
2023-01-17T08:28:11.955Z,86.81
2023-01-17T08:31:39.099Z,86.89
2023-01-17T08:35:06.876Z,86.62
2023-01-17T08:38:33.768Z,86.50
2023-01-17T08:42:00.794Z,86.58
2023-01-17T08:45:28.230Z,86.60
2023-01-17T08:48:59.012Z,86.15
2023-01-17T08:52:26.047Z,86.09
2023-01-17T08:56:00.626Z,86.00
2023-01-17T08:59:27.606Z,85.73
2023-01-17T09:02:55.331Z,85.68
2023-01-17T09:06:22.686Z,85.61
2023-01-17T09:09:49.917Z,85.31
2023-01-17T09:13:16.924Z,85.30
2023-01-17T09:16:43.958Z,85.13
2023-01-17T09:20:13.546Z,84.93
2023-01-17T09:23:40.669Z,85.11
2023-01-17T09:27:07.887Z,85.23
2023-01-17T09:30:35.184Z,85.12
2023-01-17T09:34:02.273Z,84.51
2023-01-17T09:37:30.535Z,84.52
2023-01-17T09:40:57.760Z,84.53
2023-01-17T09:44:32.036Z,84.14
2023-01-17T09:48:00.821Z,83.57
2023-01-17T09:51:27.986Z,83.15
2023-01-17T09:54:55.208Z,83.02
2023-01-17T09:58:25.735Z,82.76
2023-01-17T10:02:03.956Z,82.94
2023-01-17T10:05:46.696Z,82.58
2023-01-17T10:09:31.655Z,82.01
2023-01-17T10:13:06.344Z,81.43
2023-01-17T10:16:44.759Z,81.43
2023-01-17T10:20:34.290Z,80.31
2023-01-17T10:24:32.113Z,80.60
2023-01-17T10:28:01.444Z,79.96
2023-01-17T10:31:31.657Z,79.97
2023-01-17T10:35:04.358Z,79.48
2023-01-17T10:38:35.896Z,78.47
2023-01-17T10:42:08.536Z,78.61
2023-01-17T10:45:41.443Z,78.98
2023-01-17T10:49:15.805Z,78.60
2023-01-17T10:52:50.700Z,77.63
2023-01-17T10:56:24.645Z,77.51
2023-01-17T10:59:52.905Z,76.54
2023-01-17T11:03:21.965Z,77.56
2023-01-17T11:06:58.116Z,77.45
2023-01-17T11:10:41.026Z,77.68
2023-01-17T11:14:16.785Z,76.97
2023-01-17T11:17:52.949Z,75.44
2023-01-17T11:21:23.325Z,76.36
2023-01-17T11:24:56.694Z,76.28
2023-01-17T11:28:30.513Z,76.04
2023-01-17T11:31:58.712Z,76.41
2023-01-17T11:35:27.369Z,76.30
2023-01-17T11:39:04.091Z,76.23
2023-01-17T11:42:36.839Z,76.04
2023-01-17T11:46:15.965Z,76.20
2023-01-17T11:49:45.519Z,75.84
2023-01-17T11:53:22.512Z,75.85
2023-01-17T11:56:51.858Z,75.28
2023-01-17T12:00:25.727Z,74.86
2023-01-17T12:04:11.788Z,75.13
2023-01-17T12:07:49.080Z,75.55
2023-01-17T12:11:23.944Z,75.33
2023-01-17T12:15:03.797Z,74.85
2023-01-17T12:18:45.195Z,74.65
2023-01-17T12:22:33.774Z,74.48
2023-01-17T12:26:12.055Z,73.65
2023-01-17T12:29:50.584Z,72.18
2023-01-17T12:33:26.378Z,73.72
2023-01-17T12:37:00.413Z,73.18
2023-01-17T12:40:33.881Z,71.41
2023-01-17T12:44:02.282Z,70.74
2023-01-17T12:47:30.364Z,72.15
2023-01-17T12:51:03.538Z,72.52
2023-01-17T12:54:37.070Z,72.18
2023-01-17T12:58:07.146Z,72.70
2023-01-17T13:01:39.930Z,70.70
2023-01-17T13:05:15.244Z,70.85
2023-01-17T13:08:48.354Z,71.91
2023-01-17T13:12:18.912Z,72.13
2023-01-17T13:15:46.122Z,71.67
2023-01-17T13:19:19.144Z,72.02
2023-01-17T13:22:47.439Z,72.92
2023-01-17T13:26:28.246Z,72.21
2023-01-17T13:30:11.499Z,72.47
2023-01-17T13:33:58.207Z,71.85
2023-01-17T13:37:58.767Z,71.99
2023-01-17T13:41:45.375Z,72.50
2023-01-17T13:45:21.651Z,72.99
2023-01-17T13:48:49.274Z,73.25
2023-01-17T13:52:33.526Z,73.78
2023-01-17T13:56:11.986Z,73.58
2023-01-17T13:59:39.138Z,73.73
2023-01-17T14:03:06.190Z,73.62
2023-01-17T14:06:38.714Z,73.88
2023-01-17T14:10:25.820Z,74.05
2023-01-17T14:13:52.871Z,74.49
2023-01-17T14:17:59.051Z,74.81
2023-01-17T14:21:28.444Z,74.93
2023-01-17T14:25:14.958Z,74.98
2023-01-17T14:28:42.954Z,75.03
2023-01-17T14:32:14.189Z,75.38
2023-01-17T14:35:50.806Z,75.30
2023-01-17T14:39:25.197Z,75.17
2023-01-17T14:43:03.916Z,75.25
2023-01-17T14:46:33.389Z,74.98
2023-01-17T14:50:20.307Z,75.07
2023-01-17T14:53:56.560Z,75.20
2023-01-17T14:57:29.407Z,75.40
2023-01-17T15:01:01.249Z,75.40
2023-01-17T15:04:30.271Z,75.47
2023-01-17T15:07:59.343Z,75.36
2023-01-17T15:11:30.146Z,75.74
2023-01-17T15:14:58.756Z,75.79
2023-01-17T15:18:29.631Z,75.98
2023-01-17T15:21:57.204Z,76.02
2023-01-17T15:25:24.760Z,76.23
2023-01-17T15:28:53.284Z,76.18
2023-01-17T15:32:24.005Z,76.28
2023-01-17T15:35:59.386Z,76.49
2023-01-17T15:39:30.312Z,76.85
2023-01-17T15:43:01.101Z,76.93
2023-01-17T15:46:32.321Z,77.13
2023-01-17T15:49:59.981Z,77.17
2023-01-17T15:53:35.076Z,77.23
2023-01-17T15:57:18.172Z,77.39
2023-01-17T16:00:47.178Z,77.68
2023-01-17T16:04:29.976Z,77.95
2023-01-17T16:07:59.160Z,78.28
2023-01-17T16:11:26.409Z,78.45
2023-01-17T16:15:10.810Z,78.64
2023-01-17T16:18:40.483Z,78.95
2023-01-17T16:22:07.434Z,79.26
2023-01-17T16:25:34.795Z,79.72
2023-01-17T16:29:01.824Z,79.95
2023-01-17T16:32:29.934Z,79.62
2023-01-17T16:35:58.271Z,79.91
2023-01-17T16:39:25.724Z,79.78
2023-01-17T16:42:53.057Z,79.67
2023-01-17T16:46:23.770Z,79.57
2023-01-17T16:49:51.367Z,79.81
2023-01-17T16:53:23.336Z,79.55
2023-01-17T16:56:52.015Z,79.54
2023-01-17T17:00:21.100Z,79.47
2023-01-17T17:03:49.266Z,79.37
2023-01-17T17:07:16.480Z,79.36
2023-01-17T17:10:43.683Z,79.71
2023-01-17T17:14:11.034Z,79.81
2023-01-17T17:17:40.215Z,79.80
2023-01-17T17:21:07.489Z,79.65
2023-01-17T17:24:35.279Z,79.88
2023-01-17T17:28:02.419Z,79.80
2023-01-17T17:31:29.628Z,79.62
2023-01-17T17:34:56.834Z,79.75
2023-01-17T17:38:23.995Z,79.76
2023-01-17T17:41:51.094Z,79.75
2023-01-17T17:45:18.417Z,79.79
2023-01-17T17:48:45.681Z,79.96
2023-01-17T17:52:13.247Z,80.21
2023-01-17T17:55:42.455Z,80.29
2023-01-17T17:59:12.629Z,80.37
2023-01-17T18:02:39.898Z,80.55
2023-01-17T18:06:10.931Z,80.60
2023-01-17T18:09:39.498Z,80.94
2023-01-17T18:13:07.068Z,81.19
2023-01-17T18:16:37.652Z,81.25
2023-01-17T18:20:07.650Z,81.32
2023-01-17T18:23:36.073Z,81.26
2023-01-17T18:27:03.582Z,81.24
2023-01-17T18:30:35.069Z,81.46
2023-01-17T18:34:08.211Z,81.64
2023-01-17T18:37:35.813Z,81.76
2023-01-17T18:41:07.077Z,81.82
2023-01-17T18:44:34.167Z,81.99
2023-01-17T18:48:02.556Z,81.95
2023-01-17T18:51:32.905Z,82.06
2023-01-17T18:55:00.635Z,82.18
2023-01-17T18:58:29.331Z,82.28
2023-01-17T19:01:56.377Z,82.40
2023-01-17T19:05:24.715Z,82.57
2023-01-17T19:08:52.921Z,82.64
2023-01-17T19:12:20.786Z,82.84
2023-01-17T19:15:48.614Z,82.79
2023-01-17T19:19:17.338Z,82.88
2023-01-17T19:22:44.874Z,83.15
2023-01-17T19:26:13.225Z,83.22
2023-01-17T19:29:40.408Z,83.24
2023-01-17T19:33:07.416Z,83.28
2023-01-17T19:36:37.510Z,83.37
2023-01-17T19:40:05.125Z,83.55
2023-01-17T19:43:32.677Z,83.71
2023-01-17T19:46:59.811Z,83.88
2023-01-17T19:50:26.748Z,83.90
2023-01-17T19:53:54.866Z,84.07
2023-01-17T19:57:24.321Z,84.48
2023-01-17T20:00:49.890Z,84.59
2023-01-17T20:04:18.115Z,84.47
2023-01-17T20:07:45.195Z,84.57
2023-01-17T20:11:14.729Z,84.73
2023-01-17T20:14:40.170Z,84.40
2023-01-17T20:18:07.368Z,84.48
2023-01-17T20:21:34.781Z,84.42
2023-01-17T20:25:02.378Z,84.31
2023-01-17T20:28:31.721Z,84.40
2023-01-17T20:31:58.953Z,84.43
2023-01-17T20:35:28.579Z,84.67
2023-01-17T20:38:57.152Z,84.64
2023-01-17T20:42:24.250Z,84.82
2023-01-17T20:45:59.041Z,84.79
2023-01-17T20:49:26.785Z,84.99
2023-01-17T20:52:53.890Z,85.02
2023-01-17T20:56:21.136Z,85.08
2023-01-17T20:59:50.128Z,85.20
2023-01-17T21:03:18.100Z,85.62
2023-01-17T21:06:45.915Z,85.54
2023-01-17T21:10:14.131Z,85.75
2023-01-17T21:13:41.720Z,85.80
2023-01-17T21:17:09.367Z,85.90
2023-01-17T21:20:38.361Z,85.98
2023-01-17T21:24:06.086Z,85.93
2023-01-17T21:27:33.427Z,86.01
2023-01-17T21:31:01.129Z,86.06
2023-01-17T21:34:32.240Z,86.06
2023-01-17T21:37:59.544Z,86.38
2023-01-17T21:41:29.014Z,86.46
2023-01-17T21:44:55.972Z,86.35
2023-01-17T21:48:23.279Z,86.39
2023-01-17T21:52:08.061Z,86.40
2023-01-17T21:55:52.858Z,86.41
2023-01-17T21:59:20.149Z,86.44
2023-01-17T22:02:48.845Z,86.28
2023-01-17T22:06:16.023Z,86.48
2023-01-17T22:09:43.127Z,86.64
2023-01-17T22:13:10.488Z,86.84
2023-01-17T22:16:37.559Z,86.99
2023-01-17T22:20:05.125Z,87.10
2023-01-17T22:23:32.156Z,87.12
2023-01-17T22:26:59.100Z,87.38
2023-01-17T22:30:26.115Z,87.53
2023-01-17T22:33:57.145Z,87.27
2023-01-17T22:37:24.088Z,87.16
2023-01-17T22:40:51.318Z,87.27
2023-01-17T22:44:18.321Z,87.30
2023-01-17T22:47:45.424Z,87.55
2023-01-17T22:51:14.310Z,87.36
2023-01-17T22:54:41.235Z,87.28
2023-01-17T22:58:08.223Z,87.10
2023-01-17T23:01:35.414Z,86.99
2023-01-17T23:05:02.359Z,87.18
2023-01-17T23:08:29.319Z,87.26
2023-01-17T23:11:56.513Z,87.39
2023-01-17T23:15:41.151Z,87.55
2023-01-17T23:19:24.455Z,87.49
2023-01-17T23:22:51.932Z,87.69
2023-01-17T23:26:19.060Z,87.68
2023-01-17T23:29:46.131Z,87.88
2023-01-17T23:33:15.386Z,87.95
2023-01-17T23:36:42.275Z,87.89
2023-01-17T23:40:11.692Z,88.14
2023-01-17T23:43:37.460Z,88.07
2023-01-17T23:47:04.764Z,88.11
2023-01-17T23:50:32.370Z,88.27
2023-01-17T23:54:05.417Z,88.17
2023-01-17T23:57:32.654Z,88.26
